Data for 04/10/2018

Time Sea-Level Adjusted Pressure Absolute Pressure Temperature Relative Humidity Dew Point   
(mb) (inHg) (mb) (inHg) (C) (F) (%) (C) (F)
00:05 1022 30.18 852 25.16 2.2 35.9 62 -4.4 24.1
00:10 1022 30.18 852 25.16 2.3 36.1 61 -4.5 24
00:15 1022 30.18 852 25.16 2.3 36.1 61 -4.4 24.1
00:20 1022 30.18 852 25.16 2.3 36.1 62 -4.3 24.2
00:25 1022 30.18 852 25.16 2.3 36.2 61 -4.4 24.1
00:30 1022 30.18 852 25.16 2.2 36 61 -4.5 23.9
00:35 1023 30.21 852 25.16 2.1 35.8 62 -4.4 24
00:40 1023 30.21 852 25.16 2.1 35.7 61 -4.6 23.8
00:45 1023 30.21 852 25.16 2.1 35.8 62 -4.4 24.1
00:50 1023 30.21 852 25.16 2 35.6 62 -4.5 24
00:55 1023 30.21 852 25.16 1.8 35.2 63 -4.5 23.8
01:00 1023 30.21 852 25.16 1.8 35.2 63 -4.5 23.9
01:05 1023 30.21 852 25.16 1.8 35.2 63 -4.5 23.9
01:10 1023 30.21 852 25.16 1.7 35.1 63 -4.5 23.9
01:15 1023 30.21 852 25.16 1.4 34.4 65 -4.5 23.9
01:20 1023 30.21 852 25.16 1 33.9 65 -4.8 23.4
01:25 1023 30.21 852 25.16 1.1 34 65 -4.8 23.4
01:30 1023 30.21 852 25.16 1 33.8 65 -4.9 23.3
01:35 1023 30.21 852 25.16 0.9 33.7 64 -5 23
01:40 1023 30.21 852 25.16 1 33.7 64 -5.1 22.8
01:45 1023 30.21 852 25.16 1 33.8 64 -5.1 22.9
01:50 1023 30.21 852 25.16 1.1 34.1 63 -5.1 22.8
01:55 1023 30.21 852 25.16 1.2 34.2 63 -5.2 22.7
02:00 1023 30.21 852 25.16 1.3 34.3 63 -5 22.9
02:05 1023 30.21 852 25.16 1.2 34.2 63 -5.1 22.9
02:10 1023 30.21 852 25.16 1.1 34 63 -5.1 22.9
02:15 1023 30.21 852 25.16 1.1 33.9 64 -5 22.9
02:20 1023 30.21 852 25.16 1 33.8 64 -5 23.1
02:25 1023 30.21 852 25.16 0.9 33.7 65 -5 23
02:30 1023 30.21 852 25.16 0.7 33.3 65 -5.1 22.9
02:35 1023 30.21 852 25.16 0.6 33.1 65 -5.3 22.5
02:40 1023 30.21 852 25.16 0.6 33.2 64 -5.5 22.2
02:45 1023 30.21 852 25.16 0.7 33.3 63 -5.5 22.1
02:50 1023 30.21 852 25.16 0.7 33.3 63 -5.5 22.1
02:55 1023 30.21 852 25.16 0.8 33.4 63 -5.5 22
03:00 1022 30.18 852 25.16 0.9 33.7 62 -5.5 22.1
03:05 1022 30.18 852 25.16 0.9 33.6 63 -5.4 22.3
03:10 1022 30.18 852 25.16 0.9 33.6 63 -5.4 22.3
03:15 1022 30.18 852 25.16 0.7 33.3 64 -5.3 22.4
03:20 1022 30.18 852 25.16 0.7 33.2 64 -5.3 22.5
03:25 1022 30.18 852 25.16 0.5 33 64 -5.5 22.1
03:30 1022 30.18 852 25.16 0.7 33.3 63 -5.5 22.1
03:35 1022 30.18 852 25.16 0.7 33.2 64 -5.3 22.5
03:40 1022 30.18 852 25.16 0.7 33.3 63 -5.5 22
03:45 1022 30.18 852 25.16 0.8 33.5 63 -5.4 22.3
03:50 1022 30.18 851 25.13 0.8 33.4 64 -5.2 22.6
03:55 1022 30.18 851 25.13 0.8 33.4 63 -5.5 22.2
04:00 1022 30.18 851 25.13 0.8 33.4 63 -5.5 22.1
04:05 1022 30.18 851 25.13 0.6 33 64 -5.5 22
04:10 1022 30.18 851 25.13 0.8 33.5 61 -5.7 21.7
04:15 1022 30.18 851 25.13 1.2 34.1 62 -5.4 22.4
04:20 1022 30.18 851 25.13 1 33.8 62 -5.4 22.3
04:25 1022 30.18 851 25.13 1.1 34 61 -5.6 22
04:30 1022 30.18 851 25.13 0.8 33.4 63 -5.4 22.3
04:35 1022 30.18 851 25.13 0.4 32.7 64 -5.6 21.9
04:40 1022 30.18 851 25.13 0.4 32.6 64 -5.7 21.7
04:45 1022 30.18 851 25.13 0.3 32.5 65 -5.6 22
04:50 1022 30.18 851 25.13 0.2 32.3 65 -5.5 22
04:55 1022 30.18 851 25.13 0.7 33.2 63 -5.6 21.9
05:00 1022 30.18 851 25.13 0.7 33.2 63 -5.6 22
05:05 1022 30.18 851 25.13 0.5 32.9 64 -5.5 22.1
05:10 1021 30.15 851 25.13 0.6 33 63 -5.6 21.9
05:15 1021 30.15 851 25.13 0.7 33.2 64 -5.4 22.3
05:20 1021 30.15 850 25.1 0.4 32.7 63 -5.9 21.4
05:25 1021 30.15 850 25.1 0.6 33.1 62 -5.8 21.6
05:30 1021 30.15 850 25.1 0.7 33.3 63 -5.6 22
05:35 1021 30.15 850 25.1 0.5 32.9 63 -5.7 21.7
05:40 1021 30.15 850 25.1 0.6 33 63 -5.6 21.9
05:45 1021 30.15 850 25.1 0.5 32.8 63 -5.7 21.8
05:50 1021 30.15 850 25.1 0.7 33.3 62 -5.8 21.5
05:55 1021 30.15 850 25.1 1.1 34 60 -5.8 21.5
06:00 1021 30.15 850 25.1 1.4 34.5 59 -5.7 21.8
06:05 1021 30.15 850 25.1 1.4 34.4 59 -5.8 21.6
06:10 1021 30.15 850 25.1 1.5 34.7 58 -5.8 21.6
06:15 1021 30.15 850 25.1 1.7 35.1 57 -5.8 21.5
06:20 1021 30.15 850 25.1 1.9 35.4 58 -5.5 22.1
06:25 1021 30.15 850 25.1 1.9 35.5 57 -5.7 21.8
06:30 1021 30.15 850 25.1 1.9 35.4 57 -5.7 21.7
06:35 1021 30.15 850 25.1 1.9 35.3 57 -5.8 21.5
06:40 1021 30.15 850 25.1 1.9 35.3 56 -6 21.3
06:45 1021 30.15 850 25.1 2.3 36.2 55 -5.9 21.4
06:50 1021 30.15 850 25.1 2.4 36.3 56 -5.6 21.9
06:55 1021 30.15 850 25.1 2.4 36.2 55 -5.7 21.7
07:00 1021 30.15 850 25.1 2.7 36.8 55 -5.5 22.1
07:05 1020 30.12 850 25.1 2.8 37.1 53 -5.7 21.7
07:10 1021 30.15 850 25.1 3 37.4 54 -5.4 22.2
07:15 1021 30.15 850 25.1 2.8 37 54 -5.5 22
07:20 1021 30.15 850 25.1 3 37.4 53 -5.6 22
07:25 1021 30.15 850 25.1 3.4 38 53 -5.4 22.3
07:30 1020 30.12 850 25.1 4 39.3 50 -5.5 22.2
07:35 1020 30.12 849 25.07 4.5 40.1 48 -5.5 22.1
07:40 1020 30.12 849 25.07 4.9 40.9 48 -5.2 22.6
07:45 1020 30.12 850 25.1 5.2 41.4 47 -5.2 22.6
07:50 1020 30.12 850 25.1 5.2 41.4 46 -5.5 22
07:55 1020 30.12 850 25.1 5.9 42.6 44 -5.5 22.1
08:00 1020 30.12 849 25.07 6.1 42.9 44 -5.3 22.5
08:05 1020 30.12 849 25.07 6.8 44.3 41 -5.6 21.9
08:10 1020 30.12 849 25.07 7.2 44.9 41 -5.2 22.6
08:15 1020 30.12 849 25.07 6.9 44.3 40 -5.7 21.8
08:20 1020 30.12 849 25.07 7.1 44.7 40 -5.5 22.1
08:25 1020 30.12 849 25.07 7.6 45.6 40 -5.3 22.5
08:30 1020 30.12 849 25.07 8.2 46.8 38 -5.3 22.5
08:35 1020 30.12 849 25.07 7.8 46.1 38 -5.7 21.8
08:40 1020 30.12 849 25.07 8 46.5 38 -5.6 22
08:45 1019 30.09 849 25.07 8.5 47.3 36 -5.6 21.9
08:50 1019 30.09 849 25.07 9.6 49.2 34 -5.7 21.8
08:55 1019 30.09 849 25.07 10.5 50.9 32 -5.6 21.8
09:00 1019 30.09 848 25.04 10.7 51.2 32 -5.5 22.1
09:05 1019 30.09 849 25.07 10.3 50.6 32 -5.6 22
09:10 1019 30.09 848 25.04 10.4 50.8 32 -5.5 22.1
09:15 1019 30.09 848 25.04 11.2 52.2 31 -5.3 22.4
09:20 1019 30.09 848 25.04 11.4 52.6 29 -5.9 21.4
09:25 1019 30.09 848 25.04 11.3 52.3 29 -6.2 20.8
09:30 1019 30.09 848 25.04 11.6 52.9 30 -5.3 22.5
09:35 1019 30.09 848 25.04 11.9 53.4 29 -5.4 22.3
09:40 1019 30.09 848 25.04 12.1 53.7 29 -5.2 22.6
09:45 1019 30.09 848 25.04 12.1 53.8 30 -5.1 22.8
09:50 1019 30.09 848 25.04 11.5 52.7 29 -5.7 21.7
09:55 1019 30.09 848 25.04 11.3 52.4 31 -5.3 22.4
10:00 1019 30.09 848 25.04 10.9 51.5 31 -5.7 21.8
10:05 1019 30.09 848 25.04 11.5 52.6 29 -5.9 21.5
10:10 1019 30.09 848 25.04 11.3 52.3 30 -5.8 21.5
10:15 1019 30.09 848 25.04 10.9 51.7 30 -5.7 21.7
10:20 1019 30.09 848 25.04 10.3 50.5 33 -5.1 22.7
10:25 1019 30.09 848 25.04 10.1 50.2 34 -5 23.1
10:30 1019 30.09 848 25.04 10.3 50.5 36 -4.1 24.7
10:35 1019 30.09 848 25.04 10 50 35 -4.7 23.5
10:40 1019 30.09 848 25.04 10 50 37 -3.9 25
10:45 1019 30.09 848 25.04 10.2 50.4 37 -3.8 25.2
10:50 1019 30.09 848 25.04 10.4 50.7 39 -3 26.7
10:55 1019 30.09 848 25.04 10.1 50.1 39 -3.1 26.3
11:00 1019 30.09 848 25.04 10.2 50.3 37 -3.8 25.1
11:05 1019 30.09 848 25.04 10.7 51.2 36 -3.9 25
11:10 1019 30.09 848 25.04 10 49.9 39 -3.4 25.8
11:15 1019 30.09 848 25.04 9.5 49.1 39 -3.6 25.4
11:20 1019 30.09 848 25.04 10.1 50.1 37 -3.9 25
11:25 1019 30.09 848 25.04 10.7 51.3 35 -4 24.8
11:30 1018 30.06 848 25.04 10.5 50.9 37 -3.6 25.5
11:35 1018 30.06 848 25.04 10 50 37 -3.8 25.1
11:40 1018 30.06 847 25.01 10.3 50.5 36 -4.1 24.7
11:45 1018 30.06 847 25.01 10.4 50.7 36 -4.1 24.6
11:50 1018 30.06 847 25.01 10.6 51.1 36 -3.8 25.2
11:55 1018 30.06 847 25.01 10.5 50.9 37 -3.6 25.5
12:00 1018 30.06 847 25.01 10.7 51.2 37 -3.3 26
12:05 1018 30.06 847 25.01 10.5 50.9 39 -2.8 27
12:10 1018 30.06 847 25.01 10.6 51.1 38 -3.1 26.4
12:15 1018 30.06 847 25.01 10.8 51.4 38 -3.1 26.4
12:20 1018 30.06 847 25.01 10.8 51.5 38 -3 26.6
12:25 1018 30.06 847 25.01 10.8 51.4 37 -3.3 26
12:30 1018 30.06 847 25.01 10.9 51.6 34 -4.3 24.2
12:35 1018 30.06 847 25.01 11.1 52 36 -3.4 26
12:40 1018 30.06 847 25.01 11.4 52.5 35 -3.4 25.8
12:45 1018 30.06 847 25.01 11.1 52 35 -3.8 25.2
12:50 1018 30.06 847 25.01 10.7 51.3 35 -3.9 24.9
12:55 1018 30.06 847 25.01 10.9 51.5 36 -3.6 25.5
13:00 1018 30.06 847 25.01 10.6 51.1 37 -3.4 25.9
13:05 1018 30.06 847 25.01 10.3 50.6 39 -3.1 26.5
13:10 1018 30.06 847 25.01 10.4 50.8 39 -2.8 27
13:15 1018 30.06 847 25.01 10.2 50.4 41 -2.4 27.6
13:20 1018 30.06 847 25.01 10.1 50.2 40 -2.7 27.1
13:25 1018 30.06 847 25.01 10.3 50.5 39 -2.9 26.7
13:30 1018 30.06 847 25.01 10.7 51.2 39 -2.7 27.1
13:35 1018 30.06 847 25.01 10.9 51.7 39 -2.6 27.4
13:40 1018 30.06 847 25.01 11 51.9 39 -2.3 27.8
13:45 1018 30.06 847 25.01 10.9 51.7 39 -2.5 27.4
13:50 1018 30.06 847 25.01 10.8 51.4 39 -2.7 27.1
13:55 1018 30.06 847 25.01 10.9 51.6 39 -2.6 27.3
14:00 1018 30.06 847 25.01 11 51.8 39 -2.5 27.5
14:05 1018 30.06 847 25.01 10.9 51.5 39 -2.7 27.2
14:10 1017 30.03 847 25.01 10.7 51.3 40 -2.3 27.8
14:15 1017 30.03 847 25.01 11 51.7 38 -2.7 27.1
14:20 1017 30.03 847 25.01 11 51.8 39 -2.5 27.4
14:25 1017 30.03 847 25.01 11.1 52 39 -2.5 27.6
14:30 1017 30.03 847 25.01 11 51.7 40 -2.2 28
14:35 1017 30.03 846 24.98 11 51.9 41 -1.8 28.8
14:40 1017 30.03 846 24.98 11 51.8 41 -1.9 28.7
14:45 1017 30.03 846 24.98 11.4 52.5 40 -1.7 28.9
14:50 1017 30.03 846 24.98 11.7 53.1 41 -0.9 30.4
14:55 1017 30.03 846 24.98 11.8 53.3 43 -0.4 31.3
15:00 1017 30.03 846 24.98 12.1 53.7 40 -1 30.3
15:05 1017 30.03 846 24.98 12.3 54.2 39 -1.1 30
15:10 1017 30.03 846 24.98 12.5 54.4 38 -1.5 29.2
15:15 1017 30.03 846 24.98 12.5 54.4 37 -1.7 28.9
15:20 1017 30.03 846 24.98 12.5 54.5 37 -1.8 28.8
15:25 1017 30.03 846 24.98 12.5 54.5 37 -1.7 28.9
15:30 1017 30.03 846 24.98 12.4 54.3 38 -1.3 29.7
15:35 1017 30.03 846 24.98 12.5 54.4 39 -1.2 29.8
15:40 1016 30 846 24.98 12.4 54.4 38 -1.3 29.7
15:45 1016 30 846 24.98 12.5 54.4 39 -1.2 29.9
15:50 1016 30 845 24.95 12.3 54.2 38 -1.5 29.3
15:55 1016 30 845 24.95 12.2 53.9 38 -1.7 28.9
16:00 1016 30 845 24.95 12.1 53.8 41 -0.7 30.8
16:05 1016 30 845 24.95 11.7 53.1 41 -0.9 30.4
16:10 1016 30 845 24.95 11.4 52.6 42 -1 30.1
16:15 1016 30 845 24.95 11.3 52.3 42 -1.3 29.7
16:20 1016 30 845 24.95 11.4 52.5 42 -0.9 30.4
16:25 1015 29.97 845 24.95 11.8 53.2 41 -1 30.1
16:30 1015 29.97 845 24.95 12.1 53.8 40 -1.1 30.1
16:35 1015 29.97 844 24.92 12.3 54.1 39 -1.2 29.8
16:40 1015 29.97 844 24.92 12.1 53.7 40 -0.9 30.3
16:45 1015 29.97 844 24.92 12.2 54 40 -0.9 30.3
16:50 1015 29.97 844 24.92 12.3 54.2 38 -1.4 29.5
16:55 1015 29.97 844 24.92 12.3 54.1 39 -1.3 29.7
17:00 1015 29.97 844 24.92 12.5 54.5 38 -1.4 29.4
17:05 1015 29.97 844 24.92 12.5 54.5 38 -1.4 29.4
17:10 1015 29.97 844 24.92 12.3 54.2 39 -1.1 30.1
17:15 1015 29.97 844 24.92 12 53.6 40 -1.1 30
17:20 1015 29.97 844 24.92 11.9 53.5 40 -1.1 30.1
17:25 1015 29.97 844 24.92 11.7 53 41 -1.1 30.1
17:30 1014 29.94 844 24.92 11.7 53.1 41 -1.1 30
17:35 1014 29.94 844 24.92 11.6 52.9 41 -1 30.2
17:40 1014 29.94 843 24.89 11.8 53.2 41 -1 30.2
17:45 1014 29.94 843 24.89 12 53.5 40 -1.2 29.8
17:50 1014 29.94 843 24.89 11.9 53.4 41 -1 30.1
17:55 1014 29.94 843 24.89 11.8 53.2 41 -1.1 30
18:00 1014 29.94 843 24.89 11.6 53 43 -0.4 31.2
18:05 1014 29.94 843 24.89 11.1 52.1 45 -0.3 31.5
18:10 1014 29.94 843 24.89 10.8 51.4 46 -0.5 31.1
18:15 1014 29.94 843 24.89 10.7 51.3 45 -0.6 31
18:20 1014 29.94 843 24.89 10.7 51.2 46 -0.5 31.1
18:25 1014 29.94 843 24.89 10.5 50.8 47 -0.5 31.2
18:30 1014 29.94 843 24.89 10.3 50.5 47 -0.5 31
18:35 1014 29.94 843 24.89 10.2 50.3 47 -0.5 31.1
18:40 1014 29.94 843 24.89 10.1 50.1 48 -0.5 31.2
18:45 1014 29.94 843 24.89 9.9 49.8 48 -0.4 31.2
18:50 1014 29.94 843 24.89 9.7 49.5 49 -0.5 31.1
18:55 1014 29.94 843 24.89 9.5 49.2 49 -0.5 31.1
19:00 1014 29.94 843 24.89 9.3 48.8 50 -0.6 30.9
19:05 1014 29.94 843 24.89 9.2 48.6 50 -0.7 30.8
19:10 1014 29.94 843 24.89 9.1 48.4 50 -0.7 30.8
19:15 1014 29.94 843 24.89 9 48.2 51 -0.5 31
19:20 1014 29.94 843 24.89 8.8 47.8 52 -0.5 31.1
19:25 1014 29.94 843 24.89 8.6 47.6 52 -0.6 31
19:30 1014 29.94 843 24.89 8.5 47.3 52 -0.7 30.8
19:35 1014 29.94 843 24.89 8.4 47 53 -0.7 30.7
19:40 1014 29.94 843 24.89 8.4 47 53 -0.6 30.9
19:45 1014 29.94 843 24.89 8.4 47 52 -0.9 30.3
19:50 1014 29.94 843 24.89 8.4 47 53 -0.7 30.8
19:55 1014 29.94 843 24.89 8.2 46.7 53 -0.7 30.7
20:00 1014 29.94 843 24.89 7.8 46.1 54 -0.9 30.4
20:05 1014 29.94 843 24.89 7.8 46 54 -1 30.3
20:10 1014 29.94 843 24.89 7.8 46 54 -0.9 30.4
20:15 1014 29.94 843 24.89 7.6 45.7 54 -1 30.2
20:20 1014 29.94 843 24.89 7.7 45.8 54 -1 30.1
20:25 1014 29.94 843 24.89 7.7 45.9 54 -1 30.1
20:30 1014 29.94 843 24.89 7.8 46 54 -1 30.2
20:35 1014 29.94 843 24.89 7.7 45.8 53 -1.1 29.9
20:40 1014 29.94 843 24.89 7.8 46 53 -1.2 29.8
20:45 1014 29.94 843 24.89 7.9 46.1 53 -1.1 30
20:50 1014 29.94 843 24.89 7.7 45.9 54 -1 30.1
20:55 1014 29.94 843 24.89 7.6 45.6 54 -1.2 29.8
21:00 1014 29.94 843 24.89 7.5 45.6 53 -1.3 29.7
21:05 1013 29.91 843 24.89 7.5 45.5 54 -1.2 29.9
21:10 1013 29.91 843 24.89 7.5 45.5 53 -1.5 29.2
21:15 1014 29.94 843 24.89 7.6 45.7 53 -1.4 29.4
21:20 1013 29.91 843 24.89 7.6 45.7 53 -1.4 29.4
21:25 1013 29.91 843 24.89 7.5 45.6 53 -1.3 29.6
21:30 1013 29.91 843 24.89 7.5 45.4 53 -1.6 29.1
21:35 1013 29.91 843 24.89 7.5 45.5 54 -1.2 29.8
21:40 1013 29.91 842 24.86 7.2 44.9 55 -1.3 29.6
21:45 1013 29.91 842 24.86 6.9 44.5 55 -1.5 29.3
21:50 1013 29.91 842 24.86 6.9 44.4 55 -1.6 29.1
21:55 1013 29.91 842 24.86 6.9 44.4 55 -1.5 29.3
22:00 1013 29.91 842 24.86 6.7 44.1 56 -1.5 29.3
22:05 1013 29.91 842 24.86 6.9 44.3 55 -1.7 29
22:10 1013 29.91 842 24.86 7 44.6 53 -1.8 28.8
22:15 1013 29.91 842 24.86 7.1 44.7 54 -1.7 29
22:20 1012 29.88 842 24.86 7 44.6 54 -1.8 28.8
22:25 1012 29.88 842 24.86 7 44.6 54 -1.8 28.8
22:30 1012 29.88 842 24.86 7 44.7 54 -1.7 28.9
22:35 1012 29.88 841 24.83 7 44.7 54 -1.7 28.9
22:40 1012 29.88 841 24.83 6.8 44.2 56 -1.3 29.7
22:45 1012 29.88 841 24.83 6.4 43.6 56 -1.7 28.9
22:50 1012 29.88 841 24.83 6.7 44 56 -1.6 29.1
22:55 1012 29.88 841 24.83 6.6 43.8 54 -1.9 28.5
23:00 1012 29.88 841 24.83 6.8 44.2 54 -1.7 28.9
23:05 1012 29.88 841 24.83 6.9 44.4 52 -2.3 27.8
23:10 1012 29.88 841 24.83 7 44.6 54 -1.7 28.9
23:15 1012 29.88 841 24.83 7.2 45 49 -2.7 27.1
23:20 1012 29.88 841 24.83 8.8 47.9 46 -2 28.3
23:25 1012 29.88 841 24.83 8.2 46.7 50 -1.7 29
23:30 1011 29.85 841 24.83 7.8 46 51 -1.8 28.7
23:35 1011 29.85 841 24.83 7.6 45.8 51 -1.9 28.5
23:40 1011 29.85 841 24.83 7.6 45.6 51 -2 28.4
23:45 1011 29.85 841 24.83 7.5 45.5 50 -2.1 28.2
23:50 1011 29.85 841 24.83 7.6 45.6 50 -2.1 28.2
23:55 1011 29.85 841 24.83 7.6 45.6 50 -2.1 28.1
24:00 1011 29.85 840 24.81 7.7 45.8 49 -2.2 28